createdAt,value
2018-11-25T00:00:10.353Z,36.63
2018-11-25T00:02:38.744Z,37.57
2018-11-25T00:05:07.743Z,36.57
2018-11-25T00:07:36.019Z,39.77
2018-11-25T00:10:04.575Z,40.60
2018-11-25T00:12:32.854Z,37.53
2018-11-25T00:15:01.099Z,34.00
2018-11-25T00:17:29.428Z,38.90
2018-11-25T00:19:57.756Z,35.10
2018-11-25T00:22:26.008Z,40.73
2018-11-25T00:24:54.245Z,35.97
2018-11-25T00:27:22.477Z,36.10
2018-11-25T00:29:51.409Z,36.93
2018-11-25T00:32:19.638Z,38.27
2018-11-25T00:34:47.873Z,38.93
2018-11-25T00:37:16.109Z,39.20
2018-11-25T00:39:44.477Z,34.63
2018-11-25T00:42:12.697Z,37.10
2018-11-25T00:44:41.025Z,38.70
2018-11-25T00:47:09.247Z,38.17
2018-11-25T00:49:37.481Z,31.57
2018-11-25T00:52:05.896Z,37.30
2018-11-25T00:54:34.125Z,33.00
2018-11-25T00:57:02.361Z,34.30
2018-11-25T00:59:30.595Z,31.23
2018-11-25T01:01:58.831Z,39.43
2018-11-25T01:04:27.084Z,35.40
2018-11-25T01:06:55.343Z,35.73
2018-11-25T01:09:23.561Z,35.70
2018-11-25T01:11:51.808Z,33.93
2018-11-25T01:14:20.060Z,36.10
2018-11-25T01:16:48.338Z,33.10
2018-11-25T01:19:16.555Z,33.33
2018-11-25T01:21:44.812Z,34.73
2018-11-25T01:24:13.036Z,37.97
2018-11-25T01:26:41.268Z,37.60
2018-11-25T01:29:09.507Z,33.53
2018-11-25T01:31:37.745Z,32.53
2018-11-25T01:34:06.329Z,36.10
2018-11-25T01:36:34.577Z,35.03
2018-11-25T01:39:02.824Z,31.10
2018-11-25T01:41:31.080Z,36.33
2018-11-25T01:43:59.335Z,35.53
2018-11-25T01:46:27.567Z,40.17
2018-11-25T01:48:55.805Z,33.20
2018-11-25T01:51:24.102Z,28.87
2018-11-25T01:53:52.324Z,31.20
2018-11-25T01:56:20.585Z,34.53
2018-11-25T01:58:48.805Z,31.77
2018-11-25T02:01:17.028Z,38.90
2018-11-25T02:03:45.294Z,38.33
2018-11-25T02:06:13.528Z,30.17
2018-11-25T02:08:41.762Z,27.97
2018-11-25T02:11:10.003Z,33.07
2018-11-25T02:13:38.227Z,33.30
2018-11-25T02:16:06.485Z,42.13
2018-11-25T02:18:34.701Z,33.47
2018-11-25T02:21:02.950Z,36.10
2018-11-25T02:23:31.285Z,33.10
2018-11-25T02:25:59.514Z,34.17
2018-11-25T02:28:27.758Z,40.00
2018-11-25T02:30:55.965Z,33.63
2018-11-25T02:33:24.248Z,34.67
2018-11-25T02:35:52.438Z,32.37
2018-11-25T02:38:20.670Z,35.03
2018-11-25T02:40:49.023Z,38.10
2018-11-25T02:43:17.208Z,40.10
2018-11-25T02:45:45.429Z,36.13
2018-11-25T02:48:13.701Z,27.00
2018-11-25T02:50:41.909Z,31.13
2018-11-25T02:53:10.128Z,37.40
2018-11-25T02:55:38.401Z,35.37
2018-11-25T02:58:06.628Z,33.73
2018-11-25T03:00:34.846Z,34.83
2018-11-25T03:03:03.055Z,37.67
2018-11-25T03:05:31.298Z,37.17
2018-11-25T03:07:59.530Z,35.97
2018-11-25T03:10:27.750Z,37.40
2018-11-25T03:12:56.055Z,36.10
2018-11-25T03:15:24.362Z,34.17
2018-11-25T03:17:52.584Z,38.27
2018-11-25T03:20:20.858Z,37.50
2018-11-25T03:22:49.158Z,37.40
2018-11-25T03:25:19.289Z,40.07
2018-11-25T03:27:47.598Z,38.63
2018-11-25T03:30:19.579Z,37.23
2018-11-25T03:32:48.662Z,36.80
2018-11-25T03:35:16.882Z,37.70
2018-11-25T03:37:45.134Z,45.17
2018-11-25T03:40:14.236Z,32.00
2018-11-25T03:42:42.465Z,32.37
2018-11-25T03:45:12.814Z,36.83
2018-11-25T03:47:41.069Z,36.50
2018-11-25T03:50:09.984Z,44.20
2018-11-25T03:52:38.207Z,37.60
2018-11-25T03:55:08.198Z,36.73
2018-11-25T03:57:36.559Z,42.87
2018-11-25T04:00:07.340Z,37.20
2018-11-25T04:02:35.618Z,43.27
2018-11-25T04:05:04.157Z,36.40
2018-11-25T04:07:32.390Z,45.13
2018-11-25T04:10:00.658Z,38.70
2018-11-25T04:12:28.918Z,35.07
2018-11-25T04:14:57.128Z,36.60
2018-11-25T04:17:25.336Z,38.80
2018-11-25T04:19:53.557Z,41.47
2018-11-25T04:22:21.816Z,40.90
2018-11-25T04:24:50.058Z,38.40
2018-11-25T04:27:18.299Z,45.80
2018-11-25T04:29:46.553Z,38.00
2018-11-25T04:32:14.763Z,42.07
2018-11-25T04:34:42.983Z,35.43
2018-11-25T04:37:11.232Z,39.90
2018-11-25T04:39:39.485Z,35.97
2018-11-25T04:44:42.258Z,41.73
2018-11-25T04:47:10.500Z,43.07
2018-11-25T04:49:38.730Z,41.93
2018-11-25T04:52:06.969Z,40.90
2018-11-25T04:54:35.219Z,41.77
2018-11-25T04:57:03.448Z,47.00
2018-11-25T04:59:31.710Z,39.10
2018-11-25T05:01:59.944Z,47.33
2018-11-25T05:04:28.236Z,41.37
2018-11-25T05:06:56.453Z,44.93
2018-11-25T05:09:24.689Z,46.50
2018-11-25T05:11:52.913Z,39.57
2018-11-25T05:14:21.150Z,49.37
2018-11-25T05:16:49.405Z,43.73
2018-11-25T05:19:17.635Z,52.57
2018-11-25T05:21:45.836Z,46.20
2018-11-25T05:24:14.061Z,55.90
2018-11-25T05:26:42.279Z,45.10
2018-11-25T05:29:10.553Z,45.70
2018-11-25T05:31:38.972Z,45.83
2018-11-25T05:34:07.205Z,49.73
2018-11-25T05:36:35.429Z,48.37
2018-11-25T05:39:03.880Z,46.73
2018-11-25T05:41:32.146Z,47.37
2018-11-25T05:44:00.360Z,48.60
2018-11-25T05:46:28.556Z,47.27
2018-11-25T05:48:56.792Z,40.70
2018-11-25T05:51:25.045Z,48.93
2018-11-25T05:53:53.270Z,43.83
2018-11-25T05:56:22.493Z,50.93
2018-11-25T05:58:50.716Z,43.47
2018-11-25T06:01:18.964Z,50.63
2018-11-25T06:03:47.178Z,47.63
2018-11-25T06:06:15.412Z,44.63
2018-11-25T06:08:43.668Z,44.40
2018-11-25T06:11:11.944Z,49.20
2018-11-25T06:13:40.196Z,47.97
2018-11-25T06:16:08.428Z,51.67
2018-11-25T06:18:36.693Z,46.63
2018-11-25T06:21:05.103Z,45.43
2018-11-25T06:23:33.336Z,49.00
2018-11-25T06:26:01.577Z,52.33
2018-11-25T06:28:29.804Z,54.20
2018-11-25T06:30:58.035Z,51.43
2018-11-25T06:33:26.248Z,43.93
2018-11-25T06:35:54.527Z,50.67
2018-11-25T06:38:22.761Z,57.20
2018-11-25T06:40:51.081Z,37.10
2018-11-25T06:43:19.296Z,48.17
2018-11-25T06:45:47.494Z,49.73
2018-11-25T06:48:15.704Z,45.70
2018-11-25T06:50:43.954Z,43.70
2018-11-25T06:53:12.174Z,42.13
2018-11-25T06:55:40.533Z,52.83
2018-11-25T06:58:08.779Z,44.57
2018-11-25T07:00:37.008Z,46.73
2018-11-25T07:03:05.566Z,41.60
2018-11-25T07:05:33.871Z,46.67
2018-11-25T07:08:02.278Z,42.70
2018-11-25T07:10:30.535Z,40.47
2018-11-25T07:12:58.807Z,40.80
2018-11-25T07:15:27.028Z,37.77
2018-11-25T07:17:55.304Z,39.57
2018-11-25T07:20:23.523Z,48.90
2018-11-25T07:22:51.729Z,40.43
2018-11-25T07:25:21.994Z,48.10
2018-11-25T07:27:50.306Z,36.30
2018-11-25T07:30:24.165Z,42.80
2018-11-25T07:32:52.421Z,38.67
2018-11-25T07:35:20.790Z,42.67
2018-11-25T07:37:49.038Z,43.80
2018-11-25T07:40:19.118Z,38.70
2018-11-25T07:42:47.359Z,43.50
2018-11-25T07:45:16.561Z,39.00
2018-11-25T07:47:44.832Z,40.80
2018-11-25T07:50:13.452Z,42.87
2018-11-25T07:52:42.418Z,37.63
2018-11-25T07:55:15.393Z,37.70
2018-11-25T07:57:43.734Z,36.23
2018-11-25T08:00:14.157Z,41.10
2018-11-25T08:02:42.385Z,37.90
2018-11-25T08:05:11.637Z,40.97
2018-11-25T08:07:39.909Z,35.53
2018-11-25T08:10:10.392Z,35.50
2018-11-25T08:12:38.612Z,33.67
2018-11-25T08:15:09.427Z,39.70
2018-11-25T08:17:37.902Z,35.70
2018-11-25T08:20:07.770Z,34.20
2018-11-25T08:22:36.052Z,35.70
2018-11-25T08:25:04.724Z,42.47
2018-11-25T08:27:32.973Z,36.27
2018-11-25T08:30:01.181Z,36.33
2018-11-25T08:32:29.407Z,33.03
2018-11-25T08:34:57.621Z,34.77
2018-11-25T08:37:25.854Z,33.23
2018-11-25T08:39:54.060Z,32.83
2018-11-25T08:42:22.302Z,33.90
2018-11-25T08:44:50.504Z,29.83
2018-11-25T08:47:18.708Z,33.20
2018-11-25T08:49:46.971Z,29.50
2018-11-25T08:52:15.183Z,25.80
2018-11-25T08:54:43.440Z,30.67
2018-11-25T08:57:11.960Z,35.67
2018-11-25T08:59:40.190Z,26.60
2018-11-25T09:02:08.417Z,34.00
2018-11-25T09:04:36.636Z,33.83
2018-11-25T09:07:04.900Z,34.70
2018-11-25T09:09:33.186Z,34.77
2018-11-25T09:12:01.414Z,33.07
2018-11-25T09:14:29.610Z,32.57
2018-11-25T09:16:57.826Z,32.60
2018-11-25T09:19:26.029Z,31.17
2018-11-25T09:21:54.236Z,31.33
2018-11-25T09:24:22.477Z,33.17
2018-11-25T09:26:50.705Z,31.90
2018-11-25T09:29:18.953Z,32.47
2018-11-25T09:31:47.188Z,25.67
2018-11-25T09:34:15.405Z,29.00
2018-11-25T09:36:43.633Z,29.23
2018-11-25T09:39:11.865Z,32.53
2018-11-25T09:41:40.085Z,28.03
2018-11-25T09:44:08.298Z,27.80
2018-11-25T09:46:42.566Z,33.83
2018-11-25T09:49:05.435Z,27.87
2018-11-25T09:51:33.693Z,34.63
2018-11-25T09:54:01.905Z,31.27
2018-11-25T09:56:30.124Z,30.43
2018-11-25T09:58:58.381Z,34.03
2018-11-25T10:01:26.593Z,31.37
2018-11-25T10:03:54.822Z,31.57
2018-11-25T10:06:23.366Z,31.50
2018-11-25T10:08:51.579Z,30.63
2018-11-25T10:11:19.790Z,28.70
2018-11-25T10:13:48.066Z,31.10
2018-11-25T10:16:16.373Z,36.83
2018-11-25T10:18:44.585Z,26.00
2018-11-25T10:21:12.794Z,28.90
2018-11-25T10:23:41.024Z,23.07
2018-11-25T10:26:09.238Z,28.57
2018-11-25T10:28:37.465Z,32.00
2018-11-25T10:31:05.901Z,24.00
2018-11-25T10:33:34.708Z,33.70
2018-11-25T10:36:04.635Z,29.80
2018-11-25T10:38:31.250Z,26.33
2018-11-25T10:40:59.492Z,32.80
2018-11-25T10:43:27.732Z,33.00
2018-11-25T10:45:55.938Z,29.63
2018-11-25T10:48:24.200Z,29.17
2018-11-25T10:50:52.408Z,25.20
2018-11-25T10:53:20.626Z,30.20
2018-11-25T10:55:48.860Z,32.33
2018-11-25T10:58:17.075Z,33.57
2018-11-25T11:00:50.723Z,33.23
2018-11-25T11:03:25.168Z,29.13
2018-11-25T11:05:58.618Z,30.37
2018-11-25T11:08:26.907Z,33.73
2018-11-25T11:10:55.227Z,32.93
2018-11-25T11:13:23.473Z,30.80
2018-11-25T11:15:51.725Z,31.77
2018-11-25T11:18:19.929Z,36.07
2018-11-25T11:20:48.137Z,32.17
2018-11-25T11:23:16.469Z,37.83
2018-11-25T11:25:44.678Z,36.83
2018-11-25T11:28:12.909Z,33.87
2018-11-25T11:30:41.154Z,39.17
2018-11-25T11:33:09.440Z,38.63
2018-11-25T11:35:37.661Z,37.63
2018-11-25T11:38:06.502Z,37.83
2018-11-25T11:40:34.703Z,35.50
2018-11-25T11:43:03.162Z,40.03
2018-11-25T11:45:31.497Z,38.47
2018-11-25T11:47:59.718Z,39.33
2018-11-25T11:50:27.949Z,39.67
2018-11-25T11:52:56.156Z,35.07
2018-11-25T11:55:24.369Z,40.93
2018-11-25T11:57:52.577Z,43.97
2018-11-25T12:00:31.283Z,36.47
2018-11-25T12:02:59.961Z,40.93
2018-11-25T12:05:28.205Z,42.47
2018-11-25T12:07:56.412Z,52.50
2018-11-25T12:10:25.400Z,45.40
2018-11-25T12:12:53.856Z,43.63
2018-11-25T12:15:30.249Z,51.73
2018-11-25T12:17:52.988Z,49.97
2018-11-25T12:20:22.097Z,47.37
2018-11-25T12:22:51.075Z,48.00
2018-11-25T12:25:19.281Z,53.80
2018-11-25T12:27:47.543Z,45.70
2018-11-25T12:30:16.471Z,53.07
2018-11-25T12:32:45.974Z,57.43
2018-11-25T12:35:15.134Z,57.20
2018-11-25T12:37:43.392Z,55.33
2018-11-25T12:40:12.716Z,56.80
2018-11-25T12:42:41.465Z,56.37
2018-11-25T12:45:13.028Z,59.43
2018-11-25T12:47:41.345Z,53.73
2018-11-25T12:50:10.972Z,58.23
2018-11-25T12:52:39.237Z,58.60
2018-11-25T12:55:09.374Z,63.43
2018-11-25T12:57:37.718Z,58.10
2018-11-25T13:00:12.173Z,53.90
2018-11-25T13:02:40.406Z,55.37
2018-11-25T13:05:08.645Z,56.30
2018-11-25T13:07:37.124Z,55.80
2018-11-25T13:10:05.601Z,58.27
2018-11-25T13:12:34.664Z,59.93
2018-11-25T13:15:02.933Z,52.93
2018-11-25T13:17:32.205Z,52.90
2018-11-25T13:20:00.433Z,66.13
2018-11-25T13:22:28.720Z,58.90
2018-11-25T13:24:56.931Z,59.83
2018-11-25T13:27:25.243Z,54.10
2018-11-25T13:29:53.441Z,62.27
2018-11-25T13:32:21.653Z,57.10
2018-11-25T13:34:49.864Z,55.30
2018-11-25T13:37:18.212Z,66.30
2018-11-25T13:39:46.589Z,66.60
2018-11-25T13:42:16.271Z,63.60
2018-11-25T13:44:45.070Z,68.87
2018-11-25T13:47:13.465Z,63.47
2018-11-25T13:49:41.880Z,62.67
2018-11-25T13:52:10.109Z,58.57
2018-11-25T13:54:38.591Z,62.30
2018-11-25T13:57:07.264Z,58.20
2018-11-25T13:59:35.477Z,57.27
2018-11-25T14:02:03.735Z,66.53
2018-11-25T14:04:32.018Z,67.17
2018-11-25T14:07:00.264Z,64.47
2018-11-25T14:09:29.549Z,63.33
2018-11-25T14:11:57.797Z,70.80
2018-11-25T14:14:26.026Z,63.53
2018-11-25T14:16:54.273Z,67.37
2018-11-25T14:19:22.504Z,62.80
2018-11-25T14:21:50.784Z,72.03
2018-11-25T14:24:19.070Z,62.27
2018-11-25T14:26:50.870Z,61.93
2018-11-25T14:29:19.150Z,58.63
2018-11-25T14:31:47.369Z,61.13
2018-11-25T14:34:15.745Z,66.43
2018-11-25T14:36:43.957Z,55.87
2018-11-25T14:39:13.034Z,61.33
2018-11-25T14:41:41.336Z,63.27
2018-11-25T14:44:10.366Z,59.33
2018-11-25T14:46:38.606Z,68.80
2018-11-25T14:49:07.479Z,68.80
2018-11-25T14:51:35.729Z,67.90
2018-11-25T14:54:04.591Z,68.80
2018-11-25T14:56:33.018Z,64.20
2018-11-25T14:59:01.286Z,63.30
2018-11-25T15:01:29.545Z,67.23
2018-11-25T15:03:58.229Z,61.47
2018-11-25T15:06:29.359Z,59.90
2018-11-25T15:08:54.753Z,63.00
2018-11-25T15:11:22.975Z,63.10
2018-11-25T15:13:51.300Z,60.17
2018-11-25T15:16:19.555Z,57.97
2018-11-25T15:18:47.918Z,57.87
2018-11-25T15:21:16.314Z,57.60
2018-11-25T15:23:44.889Z,58.00
2018-11-25T15:26:16.122Z,62.33
2018-11-25T15:28:44.437Z,52.40
2018-11-25T15:31:12.975Z,60.93
2018-11-25T15:33:41.245Z,60.73
2018-11-25T15:36:09.570Z,59.90
2018-11-25T15:38:37.813Z,57.60
2018-11-25T15:41:06.229Z,55.10
2018-11-25T15:43:34.475Z,56.93
2018-11-25T15:46:03.537Z,60.70
2018-11-25T15:48:32.414Z,54.70
2018-11-25T15:51:00.654Z,57.37
2018-11-25T15:53:28.911Z,50.93
2018-11-25T15:56:00.022Z,48.40
2018-11-25T15:58:39.542Z,56.23
2018-11-25T16:01:07.812Z,52.93
2018-11-25T16:03:37.030Z,51.70
2018-11-25T16:06:12.377Z,54.37
2018-11-25T16:08:41.580Z,50.00
2018-11-25T16:11:09.878Z,49.43
2018-11-25T16:13:38.407Z,51.20
2018-11-25T16:16:06.720Z,45.70
2018-11-25T16:18:34.932Z,47.40
2018-11-25T16:21:03.464Z,47.27
2018-11-25T16:23:31.916Z,47.93
2018-11-25T16:26:03.001Z,48.80
2018-11-25T16:28:33.407Z,44.73
2018-11-25T16:31:01.632Z,39.83
2018-11-25T16:33:29.854Z,44.13
2018-11-25T16:35:58.108Z,44.37
2018-11-25T16:38:26.417Z,46.30
2018-11-25T16:40:54.780Z,36.37
2018-11-25T16:43:22.986Z,45.37
2018-11-25T16:45:51.237Z,42.27
2018-11-25T16:48:19.718Z,47.50
2018-11-25T16:50:48.028Z,37.23
2018-11-25T16:53:16.271Z,46.37
2018-11-25T16:55:44.611Z,48.40
2018-11-25T16:58:12.825Z,44.30
2018-11-25T17:00:41.043Z,46.83
2018-11-25T17:03:09.279Z,46.80
2018-11-25T17:05:40.262Z,47.03
2018-11-25T17:08:16.546Z,41.30
2018-11-25T17:10:44.807Z,49.47
2018-11-25T17:13:13.017Z,41.33
2018-11-25T17:15:41.261Z,50.77
2018-11-25T17:18:09.493Z,49.07
2018-11-25T17:20:37.714Z,51.50
2018-11-25T17:23:06.353Z,45.37
2018-11-25T17:25:34.658Z,47.93
2018-11-25T17:28:02.899Z,44.40
2018-11-25T17:30:31.144Z,47.17
2018-11-25T17:32:59.346Z,50.53
2018-11-25T17:35:29.253Z,46.50
2018-11-25T17:37:57.503Z,51.60
2018-11-25T17:40:25.733Z,51.90
2018-11-25T17:42:54.027Z,61.10
2018-11-25T17:45:22.308Z,54.70
2018-11-25T17:47:50.569Z,60.40
2018-11-25T17:50:23.003Z,58.47
2018-11-25T17:52:51.337Z,56.00
2018-11-25T17:55:20.777Z,55.33
2018-11-25T17:57:49.044Z,61.77
2018-11-25T18:00:23.163Z,55.37
2018-11-25T18:02:51.450Z,62.13
2018-11-25T18:05:19.718Z,73.90
2018-11-25T18:07:47.973Z,63.80
2018-11-25T18:10:16.248Z,60.80
2018-11-25T18:12:44.487Z,70.13
2018-11-25T18:15:16.281Z,72.03
2018-11-25T18:17:49.256Z,74.30
2018-11-25T18:20:17.521Z,68.63
2018-11-25T18:22:48.161Z,72.97
2018-11-25T18:25:16.485Z,73.23
2018-11-25T18:27:44.733Z,71.27
2018-11-25T18:30:14.493Z,67.67
2018-11-25T18:32:43.385Z,78.20
2018-11-25T18:35:11.721Z,65.40
2018-11-25T18:37:39.972Z,72.90
2018-11-25T18:40:13.690Z,73.20
2018-11-25T18:42:42.608Z,72.47
2018-11-25T18:45:14.142Z,73.00
2018-11-25T18:47:43.523Z,68.43
2018-11-25T18:50:12.969Z,68.10
2018-11-25T18:52:41.579Z,64.70
2018-11-25T18:55:08.837Z,64.90
2018-11-25T18:57:37.071Z,69.53
2018-11-25T19:00:08.926Z,69.37
2018-11-25T19:02:40.261Z,64.73
2018-11-25T19:05:08.511Z,73.63
2018-11-25T19:07:36.955Z,76.43
2018-11-25T19:10:12.652Z,74.50
2018-11-25T19:12:44.283Z,64.30
2018-11-25T19:15:12.514Z,65.03
2018-11-25T19:17:41.278Z,70.60
2018-11-25T19:20:12.290Z,74.77
2018-11-25T19:22:41.541Z,82.03
2018-11-25T19:25:11.141Z,85.03
2018-11-25T19:27:39.482Z,81.10
2018-11-25T19:30:12.558Z,81.53
2018-11-25T19:32:40.827Z,75.47
2018-11-25T19:35:10.662Z,79.43
2018-11-25T19:37:38.887Z,71.83
2018-11-25T19:40:14.018Z,80.97
2018-11-25T19:42:42.567Z,80.20
2018-11-25T19:45:12.285Z,79.77
2018-11-25T19:47:40.553Z,82.07
2018-11-25T19:50:11.884Z,80.60
2018-11-25T19:52:40.101Z,83.87
2018-11-25T19:55:08.397Z,78.17
2018-11-25T19:57:40.727Z,74.63
2018-11-25T20:00:15.401Z,88.20
2018-11-25T20:02:43.599Z,79.60
2018-11-25T20:05:12.690Z,70.37
2018-11-25T20:07:41.364Z,71.20
2018-11-25T20:10:11.730Z,84.77
2018-11-25T20:12:40.817Z,76.53
2018-11-25T20:15:12.007Z,70.77
2018-11-25T20:17:40.229Z,81.50
2018-11-25T20:20:12.291Z,86.03
2018-11-25T20:22:40.557Z,83.70
2018-11-25T20:25:09.813Z,76.33
2018-11-25T20:27:43.353Z,72.90
2018-11-25T20:30:12.494Z,70.00
2018-11-25T20:32:46.015Z,83.93
2018-11-25T20:35:14.222Z,86.40
2018-11-25T20:39:51.866Z,73.67
2018-11-25T20:42:20.130Z,73.17
2018-11-25T20:44:48.360Z,79.80
2018-11-25T20:47:16.721Z,79.90
2018-11-25T20:49:44.935Z,81.13
2018-11-25T20:52:18.471Z,83.23
2018-11-25T20:54:46.725Z,79.67
2018-11-25T20:57:15.017Z,76.10
2018-11-25T20:59:43.237Z,80.23
2018-11-25T21:02:11.540Z,83.03
2018-11-25T21:04:39.798Z,77.80
2018-11-25T21:07:09.009Z,86.60
2018-11-25T21:09:37.234Z,85.63
2018-11-25T21:12:05.482Z,86.60
2018-11-25T21:14:33.745Z,87.43
2018-11-25T21:17:01.965Z,86.37
2018-11-25T21:19:30.297Z,69.87
2018-11-25T21:21:58.533Z,84.13
2018-11-25T21:24:26.754Z,88.73
2018-11-25T21:26:54.968Z,69.53
2018-11-25T21:29:23.198Z,73.00
2018-11-25T21:31:51.424Z,83.93
2018-11-25T21:34:19.643Z,76.47
2018-11-25T21:36:47.904Z,84.67
2018-11-25T21:39:16.284Z,90.37
2018-11-25T21:41:44.569Z,86.90
2018-11-25T21:44:12.874Z,76.87
2018-11-25T21:46:41.406Z,77.40
2018-11-25T21:49:09.711Z,77.37
2018-11-25T21:51:38.191Z,86.10
2018-11-25T21:54:06.532Z,78.60
2018-11-25T21:56:34.986Z,74.17
2018-11-25T21:59:03.445Z,77.50
2018-11-25T22:01:31.844Z,79.63
2018-11-25T22:04:00.125Z,82.30
2018-11-25T22:06:28.478Z,80.30
2018-11-25T22:08:56.706Z,81.20
2018-11-25T22:11:24.934Z,79.80
2018-11-25T22:13:53.140Z,69.87
2018-11-25T22:16:21.377Z,83.97
2018-11-25T22:18:49.960Z,82.00
2018-11-25T22:21:18.216Z,82.80
2018-11-25T22:23:46.439Z,74.57
2018-11-25T22:26:14.660Z,74.00
2018-11-25T22:28:42.997Z,79.23
2018-11-25T22:31:11.237Z,83.43
2018-11-25T22:33:39.449Z,79.93
2018-11-25T22:36:07.657Z,73.60
2018-11-25T22:38:35.946Z,73.17
2018-11-25T22:41:04.242Z,70.50
2018-11-25T22:43:32.496Z,84.23
2018-11-25T22:46:00.721Z,69.90
2018-11-25T22:48:28.979Z,74.67
2018-11-25T22:50:57.184Z,73.97
2018-11-25T22:53:25.389Z,86.63
2018-11-25T22:55:53.600Z,63.43
2018-11-25T22:58:21.797Z,81.87
2018-11-25T23:00:52.186Z,73.90
2018-11-25T23:03:20.830Z,81.33
2018-11-25T23:06:01.048Z,72.90
2018-11-25T23:08:29.276Z,76.90
2018-11-25T23:10:57.489Z,81.37
2018-11-25T23:13:25.684Z,75.63
2018-11-25T23:15:53.897Z,75.50
2018-11-25T23:18:22.266Z,77.60
2018-11-25T23:20:51.769Z,73.17
2018-11-25T23:23:19.981Z,73.10
2018-11-25T23:25:48.221Z,73.63
2018-11-25T23:28:16.425Z,70.03
2018-11-25T23:30:44.621Z,64.33
2018-11-25T23:33:12.844Z,70.30
2018-11-25T23:35:41.061Z,72.80
2018-11-25T23:38:09.272Z,72.83
2018-11-25T23:40:37.573Z,82.47
2018-11-25T23:43:06.355Z,62.10
2018-11-25T23:45:34.565Z,71.50
2018-11-25T23:48:02.785Z,74.00
2018-11-25T23:50:31.078Z,75.90
2018-11-25T23:52:59.264Z,79.40
2018-11-25T23:55:27.576Z,71.60
2018-11-25T23:57:55.802Z,79.53
